createdAt,value
2018-03-17T00:01:09.224Z,-0.3
2018-03-17T00:11:23.757Z,-0.4
2018-03-17T00:22:03.090Z,-0.5
2018-03-17T00:35:08.899Z,-0.6
2018-03-17T00:45:54.472Z,-0.7
2018-03-17T00:56:09.220Z,-0.7
2018-03-17T01:06:23.439Z,-0.8
2018-03-17T01:16:41.285Z,-0.8
2018-03-17T01:26:55.842Z,-0.9
2018-03-17T01:37:17.652Z,-1.0
2018-03-17T01:47:31.888Z,-1.1
2018-03-17T01:57:52.417Z,-1.1
2018-03-17T02:08:06.503Z,-1.2
2018-03-17T02:18:22.544Z,-1.3
2018-03-17T02:28:35.802Z,-1.4
2018-03-17T02:38:53.930Z,-1.4
2018-03-17T02:49:07.535Z,-1.5
2018-03-17T02:59:21.683Z,-1.6
2018-03-17T03:09:59.338Z,-1.7
2018-03-17T03:20:13.952Z,-1.7
2018-03-17T03:30:45.256Z,-1.8
2018-03-17T03:41:30.568Z,-1.9
2018-03-17T03:52:17.422Z,-2.0
2018-03-17T04:03:03.064Z,-2.0
2018-03-17T04:13:14.878Z,-2.0
2018-03-17T04:23:26.663Z,-2.1
2018-03-17T04:33:41.188Z,-2.2
2018-03-17T04:43:55.144Z,-2.2
2018-03-17T04:54:14.811Z,-2.3
2018-03-17T05:04:28.549Z,-2.4
2018-03-17T05:14:42.581Z,-2.4
2018-03-17T05:24:56.147Z,-2.5
2018-03-17T05:35:10.342Z,-2.5
2018-03-17T05:45:23.932Z,-2.6
2018-03-17T06:05:54.203Z,-2.7
2018-03-17T06:16:08.707Z,-2.8
2018-03-17T06:26:22.641Z,-2.8
2018-03-17T06:37:08.174Z,-2.8
2018-03-17T06:47:22.472Z,-2.8
2018-03-17T06:57:36.210Z,-2.8
2018-03-17T07:07:50.849Z,-2.9
2018-03-17T07:18:04.587Z,-2.8
2018-03-17T07:28:18.846Z,-2.8
2018-03-17T07:38:32.969Z,-2.7
2018-03-17T07:48:52.437Z,-2.6
2018-03-17T07:59:12.190Z,-2.6
2018-03-17T08:09:57.589Z,-2.4
2018-03-17T08:20:09.531Z,-2.4
2018-03-17T08:30:54.938Z,-2.1
2018-03-17T08:41:39.822Z,-2.0
2018-03-17T08:52:25.131Z,-1.9
2018-03-17T09:03:20.902Z,-1.8
2018-03-17T09:13:35.659Z,-1.7
2018-03-17T09:34:04.392Z,-1.5
2018-03-17T09:44:50.070Z,-1.0
2018-03-17T09:55:44.591Z,-0.8
2018-03-17T10:05:59.021Z,-0.8
2018-03-17T10:16:13.514Z,-0.6
2018-03-17T10:26:27.753Z,-0.4
2018-03-17T10:36:42.188Z,-0.2
2018-03-17T10:46:56.337Z,0.0
2018-03-17T10:57:11.152Z,0.1
2018-03-17T11:07:24.470Z,0.2
2018-03-17T11:18:47.169Z,0.5
2018-03-17T11:29:01.221Z,0.4
2018-03-17T11:39:14.884Z,0.7
2018-03-17T11:51:49.945Z,1.2
2018-03-17T12:02:04.061Z,1.2
2018-03-17T12:12:18.422Z,1.5
2018-03-17T12:23:04.163Z,2.6
2018-03-17T12:33:50.011Z,3.1
2018-03-17T12:48:24.951Z,3.6
2018-03-17T13:00:37.667Z,4.2
2018-03-17T13:13:42.460Z,4.4
2018-03-17T13:25:46.372Z,4.5
2018-03-17T13:36:44.693Z,4.7
2018-03-17T13:50:21.594Z,5.0
2018-03-17T14:02:03.312Z,5.0
2018-03-17T14:15:03.891Z,5.8
2018-03-17T14:28:39.923Z,6.3
2018-03-17T14:40:39.819Z,6.7
2018-03-17T14:53:15.365Z,6.9
2018-03-17T15:04:38.847Z,6.9
2018-03-17T15:16:16.365Z,6.2
2018-03-17T15:27:48.447Z,6.2
2018-03-17T15:38:35.106Z,4.9
2018-03-17T15:48:49.080Z,4.9
2018-03-17T15:59:03.928Z,4.4
2018-03-17T16:09:18.339Z,3.8
2018-03-17T16:20:03.845Z,2.9
2018-03-17T16:30:48.600Z,2.5
2018-03-17T16:41:35.417Z,2.2
2018-03-17T16:51:48.797Z,2.2
2018-03-17T17:02:45.760Z,1.5
2018-03-17T17:31:15.061Z,0.8
2018-03-17T17:56:26.021Z,0.2
2018-03-17T18:54:05.002Z,-0.6
2018-03-17T19:08:28.777Z,-0.9
2018-03-17T19:20:09.866Z,-1.0
2018-03-17T19:33:38.741Z,-1.0
2018-03-17T19:59:54.891Z,-1.2
2018-03-17T20:25:53.636Z,-1.4
2018-03-17T20:36:08.907Z,-1.4
2018-03-17T20:46:23.923Z,-1.5
2018-03-17T21:10:57.555Z,-1.7
2018-03-17T21:21:10.741Z,-1.7
2018-03-17T21:31:24.011Z,-1.8
2018-03-17T21:41:35.504Z,-1.9
2018-03-17T21:51:46.696Z,-1.9
2018-03-17T22:02:01.092Z,-1.9
2018-03-17T22:12:18.831Z,-2.0
2018-03-17T22:22:32.806Z,-2.0
2018-03-17T22:32:46.748Z,-2.0
2018-03-17T22:43:01.604Z,-2.0
2018-03-17T22:53:16.346Z,-2.1
2018-03-17T23:03:30.687Z,-2.1
2018-03-17T23:13:44.907Z,-2.2
2018-03-17T23:23:59.162Z,-2.2
2018-03-17T23:34:13.445Z,-2.3
2018-03-17T23:44:27.892Z,-2.4
2018-03-17T23:54:41.616Z,-2.5
